Time,TemperatureF,DewpointF,PressureIn,WindDirection,WindDirectionDegrees,WindSpeedMPH,WindSpeedGustMPH,Humidity,HourlyPrecipIn,Conditions,Clouds,dailyrainin,SoftwareType,DateUTC
2013-01-22 00:02:00,45.0,-99.9,-100.00,North,-999,-999.0,-999.0,-999,-99.99,,,-99.99,,2013-01-22 08:02:00,
2013-01-22 02:42:00,42.0,5.0,-100.00,North,-999,-999.0,-999.0,20,-99.99,,,-99.99,,2013-01-22 10:42:00,
2013-01-22 02:52:00,42.0,5.0,-100.00,North,-999,-999.0,-999.0,20,-99.99,,,-99.99,,2013-01-22 10:52:00,
2013-01-22 03:02:00,42.0,5.0,-100.00,North,-999,-999.0,-999.0,20,-99.99,,,-99.99,,2013-01-22 11:02:00,
2013-01-22 08:14:00,45.0,-99.9,-100.00,North,-999,-999.0,-999.0,-999,-99.99,,,-99.99,,2013-01-22 16:14:00,
2013-01-22 08:44:00,49.0,-99.9,-100.00,North,-999,-999.0,-999.0,-999,-99.99,,,-99.99,,2013-01-22 16:44:00,
2013-01-22 08:53:00,51.0,9.0,-100.00,North,-999,-999.0,-999.0,17,-99.99,,,-99.99,,2013-01-22 16:53:00,
2013-01-22 09:03:00,51.0,9.0,-100.00,North,-999,-999.0,-999.0,17,-99.99,,,-99.99,,2013-01-22 17:03:00,
2013-01-22 09:12:00,55.0,9.0,-100.00,North,-999,-999.0,-999.0,15,-99.99,,,-99.99,,2013-01-22 17:12:00,
2013-01-22 10:54:00,59.0,-99.9,-100.00,North,-999,-999.0,-999.0,-999,-99.99,,,-99.99,,2013-01-22 18:54:00,
2013-01-22 11:04:00,59.0,-99.9,-100.00,North,-999,-999.0,-999.0,-999,-99.99,,,-99.99,,2013-01-22 19:04:00,
2013-01-22 11:53:00,62.0,12.0,-100.00,North,-999,-999.0,-999.0,13,-99.99,,,-99.99,,2013-01-22 19:53:00,
2013-01-22 12:03:00,62.0,12.0,-100.00,North,-999,-999.0,-999.0,13,-99.99,,,-99.99,,2013-01-22 20:03:00,
2013-01-22 12:12:00,62.0,12.0,-100.00,North,-999,-999.0,-999.0,13,-99.99,,,-99.99,,2013-01-22 20:12:00,
2013-01-22 12:22:00,66.0,13.0,-100.00,North,-999,-999.0,-999.0,12,-99.99,,,-99.99,,2013-01-22 20:22:00,
2013-01-22 12:42:00,66.0,13.0,-100.00,North,-999,-999.0,-999.0,12,-99.99,,,-99.99,,2013-01-22 20:42:00,
2013-01-22 12:53:00,66.0,13.0,-100.00,North,-999,-999.0,-999.0,12,-99.99,,,-99.99,,2013-01-22 20:53:00,
2013-01-22 16:23:00,63.0,-99.9,-100.00,North,-999,-999.0,-999.0,-999,-99.99,,,-99.99,,2013-01-23 00:23:00,
2013-01-22 16:33:00,63.0,-99.9,-100.00,North,-999,-999.0,-999.0,-999,-99.99,,,-99.99,,2013-01-23 00:33:00,
2013-01-22 17:13:00,59.0,-99.9,-100.00,North,-999,-999.0,-999.0,-999,-99.99,,,-99.99,,2013-01-23 01:13:00,
2013-01-22 17:52:00,56.0,14.0,-100.00,North,-999,-999.0,-999.0,18,-99.99,,,-99.99,,2013-01-23 01:52:00,
2013-01-22 18:03:00,56.0,14.0,-100.00,North,-999,-999.0,-999.0,18,-99.99,,,-99.99,,2013-01-23 02:03:00,
2013-01-22 18:12:00,56.0,14.0,-100.00,North,-999,-999.0,-999.0,18,-99.99,,,-99.99,,2013-01-23 02:12:00,
2013-01-22 18:23:00,53.0,-99.9,-100.00,North,-999,-999.0,-999.0,-999,-99.99,,,-99.99,,2013-01-23 02:23:00,
2013-01-22 18:33:00,53.0,-99.9,-100.00,North,-999,-999.0,-999.0,-999,-99.99,,,-99.99,,2013-01-23 02:33:00,
2013-01-22 18:43:00,53.0,-99.9,-100.00,North,-999,-999.0,-999.0,-999,-99.99,,,-99.99,,2013-01-23 02:43:00,
2013-01-22 18:53:00,50.0,12.0,-100.00,North,-999,-999.0,-999.0,21,-99.99,,,-99.99,,2013-01-23 02:53:00,
2013-01-22 19:03:00,50.0,12.0,-100.00,North,-999,-999.0,-999.0,21,-99.99,,,-99.99,,2013-01-23 03:03:00,
2013-01-22 19:12:00,50.0,12.0,-100.00,North,-999,-999.0,-999.0,21,-99.99,,,-99.99,,2013-01-23 03:12:00,
2013-01-22 19:22:00,50.0,12.0,-100.00,North,-999,-999.0,-999.0,21,-99.99,,,-99.99,,2013-01-23 03:22:00,
2013-01-22 20:53:00,49.0,10.0,-100.00,North,-999,-999.0,-999.0,20,-99.99,,,-99.99,,2013-01-23 04:53:00,
2013-01-22 21:03:00,49.0,10.0,-100.00,North,-999,-999.0,-999.0,20,-99.99,,,-99.99,,2013-01-23 05:03:00,
2013-01-22 21:12:00,49.0,10.0,-100.00,North,-999,-999.0,-999.0,20,-99.99,,,-99.99,,2013-01-23 05:12:00,